sensor_id;sensor_type;location;lat;lon;timestamp;pressure;altitude;pressure_sealevel;temperature
68939;BMP180;59064;45.294;11.816;2024-03-08T00:01:14;101477.40;;;8.32
68939;BMP180;59064;45.294;11.816;2024-03-08T00:03:39;101479.00;;;8.30
68939;BMP180;59064;45.294;11.816;2024-03-08T00:06:05;101480.00;;;8.30
68939;BMP180;59064;45.294;11.816;2024-03-08T00:08:31;101483.20;;;8.30
68939;BMP180;59064;45.294;11.816;2024-03-08T00:10:56;101484.40;;;8.30
68939;BMP180;59064;45.294;11.816;2024-03-08T00:13:22;101485.40;;;8.30
68939;BMP180;59064;45.294;11.816;2024-03-08T00:15:48;101481.20;;;8.24
68939;BMP180;59064;45.294;11.816;2024-03-08T00:18:13;101485.60;;;8.20
68939;BMP180;59064;45.294;11.816;2024-03-08T00:20:39;101484.40;;;8.20
68939;BMP180;59064;45.294;11.816;2024-03-08T00:23:04;101478.20;;;8.20
68939;BMP180;59064;45.294;11.816;2024-03-08T00:25:30;101481.20;;;8.20
68939;BMP180;59064;45.294;11.816;2024-03-08T00:27:56;101479.60;;;8.20
68939;BMP180;59064;45.294;11.816;2024-03-08T00:30:22;101486.20;;;8.20
68939;BMP180;59064;45.294;11.816;2024-03-08T00:32:48;101481.20;;;8.20
68939;BMP180;59064;45.294;11.816;2024-03-08T00:35:14;101482.00;;;8.20
68939;BMP180;59064;45.294;11.816;2024-03-08T00:37:40;101472.60;;;8.20
68939;BMP180;59064;45.294;11.816;2024-03-08T00:40:08;101471.40;;;8.20
68939;BMP180;59064;45.294;11.816;2024-03-08T00:42:34;101467.20;;;8.20
68939;BMP180;59064;45.294;11.816;2024-03-08T00:45:00;101471.20;;;8.20
68939;BMP180;59064;45.294;11.816;2024-03-08T00:47:25;101468.40;;;8.20
68939;BMP180;59064;45.294;11.816;2024-03-08T00:49:52;101469.20;;;8.20
68939;BMP180;59064;45.294;11.816;2024-03-08T00:52:18;101462.40;;;8.20
68939;BMP180;59064;45.294;11.816;2024-03-08T00:54:44;101462.80;;;8.20
68939;BMP180;59064;45.294;11.816;2024-03-08T00:57:10;101470.20;;;8.20
68939;BMP180;59064;45.294;11.816;2024-03-08T00:59:37;101466.60;;;8.12
68939;BMP180;59064;45.294;11.816;2024-03-08T01:02:03;101465.60;;;8.14
68939;BMP180;59064;45.294;11.816;2024-03-08T01:04:29;101464.00;;;8.14
68939;BMP180;59064;45.294;11.816;2024-03-08T01:06:55;101462.80;;;8.10
68939;BMP180;59064;45.294;11.816;2024-03-08T01:09:22;101459.00;;;8.10
68939;BMP180;59064;45.294;11.816;2024-03-08T01:11:47;101461.60;;;8.10
68939;BMP180;59064;45.294;11.816;2024-03-08T01:14:13;101458.60;;;8.10
68939;BMP180;59064;45.294;11.816;2024-03-08T01:16:39;101452.80;;;8.10
68939;BMP180;59064;45.294;11.816;2024-03-08T01:19:06;101449.40;;;8.10
68939;BMP180;59064;45.294;11.816;2024-03-08T01:21:32;101452.00;;;8.10
68939;BMP180;59064;45.294;11.816;2024-03-08T01:23:57;101439.80;;;8.10
68939;BMP180;59064;45.294;11.816;2024-03-08T01:26:22;101435.60;;;8.10
68939;BMP180;59064;45.294;11.816;2024-03-08T01:28:49;101436.40;;;8.10
68939;BMP180;59064;45.294;11.816;2024-03-08T01:31:14;101439.00;;;8.10
68939;BMP180;59064;45.294;11.816;2024-03-08T01:33:41;101432.80;;;8.10
68939;BMP180;59064;45.294;11.816;2024-03-08T01:36:08;101436.00;;;8.10
68939;BMP180;59064;45.294;11.816;2024-03-08T01:38:33;101439.40;;;8.10
68939;BMP180;59064;45.294;11.816;2024-03-08T01:41:01;101434.20;;;8.10
68939;BMP180;59064;45.294;11.816;2024-03-08T01:43:28;101432.20;;;8.10
68939;BMP180;59064;45.294;11.816;2024-03-08T01:45:54;101427.00;;;8.10
68939;BMP180;59064;45.294;11.816;2024-03-08T01:48:20;101425.20;;;8.10
68939;BMP180;59064;45.294;11.816;2024-03-08T01:50:50;101422.80;;;8.10
68939;BMP180;59064;45.294;11.816;2024-03-08T01:53:17;101425.00;;;8.10
68939;BMP180;59064;45.294;11.816;2024-03-08T01:55:48;101418.20;;;8.10
68939;BMP180;59064;45.294;11.816;2024-03-08T01:58:14;101415.40;;;8.10
68939;BMP180;59064;45.294;11.816;2024-03-08T02:00:46;101418.60;;;8.10
68939;BMP180;59064;45.294;11.816;2024-03-08T02:03:17;101415.40;;;8.10
68939;BMP180;59064;45.294;11.816;2024-03-08T02:05:43;101415.80;;;8.10
68939;BMP180;59064;45.294;11.816;2024-03-08T02:08:09;101413.40;;;8.10
68939;BMP180;59064;45.294;11.816;2024-03-08T02:10:44;101411.80;;;8.10
68939;BMP180;59064;45.294;11.816;2024-03-08T02:13:10;101404.60;;;8.10
68939;BMP180;59064;45.294;11.816;2024-03-08T02:15:56;101402.00;;;8.10
68939;BMP180;59064;45.294;11.816;2024-03-08T02:18:23;101400.40;;;8.10
68939;BMP180;59064;45.294;11.816;2024-03-08T02:21:18;101399.00;;;8.10
68939;BMP180;59064;45.294;11.816;2024-03-08T02:23:44;101398.60;;;8.00
68939;BMP180;59064;45.294;11.816;2024-03-08T02:26:10;101396.40;;;8.00
68939;BMP180;59064;45.294;11.816;2024-03-08T02:28:36;101399.00;;;8.00
68939;BMP180;59064;45.294;11.816;2024-03-08T02:31:01;101395.20;;;8.00
68939;BMP180;59064;45.294;11.816;2024-03-08T02:33:29;101391.00;;;8.00
68939;BMP180;59064;45.294;11.816;2024-03-08T02:35:54;101392.40;;;8.00
68939;BMP180;59064;45.294;11.816;2024-03-08T02:38:22;101394.40;;;7.98
68939;BMP180;59064;45.294;11.816;2024-03-08T02:40:52;101396.20;;;7.96
68939;BMP180;59064;45.294;11.816;2024-03-08T02:43:19;101399.80;;;7.96
68939;BMP180;59064;45.294;11.816;2024-03-08T02:45:45;101399.20;;;7.92
68939;BMP180;59064;45.294;11.816;2024-03-08T02:48:11;101399.80;;;7.92
68939;BMP180;59064;45.294;11.816;2024-03-08T02:50:37;101394.80;;;7.90
68939;BMP180;59064;45.294;11.816;2024-03-08T02:53:06;101398.20;;;7.90
68939;BMP180;59064;45.294;11.816;2024-03-08T02:55:31;101395.40;;;7.90
68939;BMP180;59064;45.294;11.816;2024-03-08T02:57:58;101397.00;;;7.90
68939;BMP180;59064;45.294;11.816;2024-03-08T03:00:24;101395.40;;;7.90
68939;BMP180;59064;45.294;11.816;2024-03-08T03:02:50;101398.00;;;7.90
68939;BMP180;59064;45.294;11.816;2024-03-08T03:05:23;101397.20;;;7.90
68939;BMP180;59064;45.294;11.816;2024-03-08T03:07:49;101400.20;;;7.90
68939;BMP180;59064;45.294;11.816;2024-03-08T03:10:16;101396.00;;;7.90
68939;BMP180;59064;45.294;11.816;2024-03-08T03:12:43;101392.80;;;7.90
68939;BMP180;59064;45.294;11.816;2024-03-08T03:15:09;101397.20;;;7.90
68939;BMP180;59064;45.294;11.816;2024-03-08T03:17:35;101400.20;;;7.90
68939;BMP180;59064;45.294;11.816;2024-03-08T03:20:00;101399.20;;;7.90
68939;BMP180;59064;45.294;11.816;2024-03-08T03:22:34;101398.60;;;7.90
68939;BMP180;59064;45.294;11.816;2024-03-08T03:25:00;101402.40;;;7.90
68939;BMP180;59064;45.294;11.816;2024-03-08T03:27:29;101400.80;;;7.90
68939;BMP180;59064;45.294;11.816;2024-03-08T03:29:56;101401.80;;;7.90
68939;BMP180;59064;45.294;11.816;2024-03-08T03:32:23;101403.60;;;7.90
68939;BMP180;59064;45.294;11.816;2024-03-08T03:34:48;101397.80;;;7.90
68939;BMP180;59064;45.294;11.816;2024-03-08T03:37:18;101393.00;;;7.90
68939;BMP180;59064;45.294;11.816;2024-03-08T03:39:45;101394.60;;;7.90
68939;BMP180;59064;45.294;11.816;2024-03-08T03:42:17;101395.60;;;7.90
68939;BMP180;59064;45.294;11.816;2024-03-08T03:44:47;101396.00;;;7.90
68939;BMP180;59064;45.294;11.816;2024-03-08T03:47:16;101398.60;;;7.90
68939;BMP180;59064;45.294;11.816;2024-03-08T03:49:42;101394.80;;;7.88
68939;BMP180;59064;45.294;11.816;2024-03-08T03:52:08;101398.20;;;7.80
68939;BMP180;59064;45.294;11.816;2024-03-08T03:54:33;101390.60;;;7.80
68939;BMP180;59064;45.294;11.816;2024-03-08T03:56:59;101396.40;;;7.80
68939;BMP180;59064;45.294;11.816;2024-03-08T03:59:26;101401.60;;;7.80
68939;BMP180;59064;45.294;11.816;2024-03-08T04:01:53;101406.00;;;7.78
68939;BMP180;59064;45.294;11.816;2024-03-08T04:04:18;101404.20;;;7.76
68939;BMP180;59064;45.294;11.816;2024-03-08T04:06:44;101406.00;;;7.70
68939;BMP180;59064;45.294;11.816;2024-03-08T04:09:10;101401.40;;;7.70
68939;BMP180;59064;45.294;11.816;2024-03-08T04:11:36;101402.60;;;7.70
68939;BMP180;59064;45.294;11.816;2024-03-08T04:14:01;101409.00;;;7.70
68939;BMP180;59064;45.294;11.816;2024-03-08T04:16:27;101413.60;;;7.60
68939;BMP180;59064;45.294;11.816;2024-03-08T04:18:52;101410.40;;;7.60
68939;BMP180;59064;45.294;11.816;2024-03-08T04:21:18;101415.20;;;7.60
68939;BMP180;59064;45.294;11.816;2024-03-08T04:23:46;101414.20;;;7.60
68939;BMP180;59064;45.294;11.816;2024-03-08T04:26:12;101419.00;;;7.50
68939;BMP180;59064;45.294;11.816;2024-03-08T04:28:38;101417.80;;;7.50
68939;BMP180;59064;45.294;11.816;2024-03-08T04:31:05;101421.80;;;7.50
68939;BMP180;59064;45.294;11.816;2024-03-08T04:33:32;101419.00;;;7.40
68939;BMP180;59064;45.294;11.816;2024-03-08T04:35:57;101421.40;;;7.40
68939;BMP180;59064;45.294;11.816;2024-03-08T04:38:23;101418.40;;;7.40
68939;BMP180;59064;45.294;11.816;2024-03-08T04:40:50;101416.80;;;7.30
68939;BMP180;59064;45.294;11.816;2024-03-08T04:43:16;101410.00;;;7.30
68939;BMP180;59064;45.294;11.816;2024-03-08T04:45:44;101411.60;;;7.30
68939;BMP180;59064;45.294;11.816;2024-03-08T04:48:09;101411.00;;;7.20
68939;BMP180;59064;45.294;11.816;2024-03-08T04:50:35;101413.00;;;7.20
68939;BMP180;59064;45.294;11.816;2024-03-08T04:53:00;101416.60;;;7.20
68939;BMP180;59064;45.294;11.816;2024-03-08T04:55:26;101419.60;;;7.10
68939;BMP180;59064;45.294;11.816;2024-03-08T04:58:10;101416.20;;;7.10
68939;BMP180;59064;45.294;11.816;2024-03-08T05:00:35;101413.60;;;7.10
68939;BMP180;59064;45.294;11.816;2024-03-08T05:03:01;101415.60;;;7.10
68939;BMP180;59064;45.294;11.816;2024-03-08T05:05:40;101413.60;;;7.02
68939;BMP180;59064;45.294;11.816;2024-03-08T05:08:06;101423.80;;;7.00
68939;BMP180;59064;45.294;11.816;2024-03-08T05:10:31;101419.00;;;7.00
68939;BMP180;59064;45.294;11.816;2024-03-08T05:13:25;101422.80;;;7.00
68939;BMP180;59064;45.294;11.816;2024-03-08T05:15:52;101422.80;;;7.00
68939;BMP180;59064;45.294;11.816;2024-03-08T05:18:17;101430.80;;;6.96
68939;BMP180;59064;45.294;11.816;2024-03-08T05:20:43;101430.20;;;6.90
68939;BMP180;59064;45.294;11.816;2024-03-08T05:23:08;101429.60;;;6.90
68939;BMP180;59064;45.294;11.816;2024-03-08T05:25:47;101428.80;;;6.90
68939;BMP180;59064;45.294;11.816;2024-03-08T05:28:13;101424.40;;;6.90
68939;BMP180;59064;45.294;11.816;2024-03-08T05:30:39;101424.80;;;6.82
68939;BMP180;59064;45.294;11.816;2024-03-08T05:33:04;101428.80;;;6.80
68939;BMP180;59064;45.294;11.816;2024-03-08T05:35:30;101424.40;;;6.80
68939;BMP180;59064;45.294;11.816;2024-03-08T05:37:55;101427.00;;;6.80
68939;BMP180;59064;45.294;11.816;2024-03-08T05:40:21;101430.40;;;6.70
68939;BMP180;59064;45.294;11.816;2024-03-08T05:42:46;101435.60;;;6.70
68939;BMP180;59064;45.294;11.816;2024-03-08T05:45:12;101439.00;;;6.70
68939;BMP180;59064;45.294;11.816;2024-03-08T05:47:39;101435.00;;;6.70
68939;BMP180;59064;45.294;11.816;2024-03-08T05:50:05;101447.80;;;6.60
68939;BMP180;59064;45.294;11.816;2024-03-08T05:52:33;101446.60;;;6.60
68939;BMP180;59064;45.294;11.816;2024-03-08T05:54:58;101442.80;;;6.60
68939;BMP180;59064;45.294;11.816;2024-03-08T05:57:24;101445.40;;;6.60
68939;BMP180;59064;45.294;11.816;2024-03-08T05:59:49;101447.00;;;6.60
68939;BMP180;59064;45.294;11.816;2024-03-08T06:02:15;101446.00;;;6.60
68939;BMP180;59064;45.294;11.816;2024-03-08T06:04:47;101443.60;;;6.60
68939;BMP180;59064;45.294;11.816;2024-03-08T06:07:12;101445.80;;;6.54
68939;BMP180;59064;45.294;11.816;2024-03-08T06:09:38;101447.80;;;6.50
68939;BMP180;59064;45.294;11.816;2024-03-08T06:12:04;101453.40;;;6.50
68939;BMP180;59064;45.294;11.816;2024-03-08T06:14:31;101460.60;;;6.50
68939;BMP180;59064;45.294;11.816;2024-03-08T06:16:58;101463.00;;;6.50
68939;BMP180;59064;45.294;11.816;2024-03-08T06:19:25;101462.20;;;6.50
68939;BMP180;59064;45.294;11.816;2024-03-08T06:21:52;101462.40;;;6.50
68939;BMP180;59064;45.294;11.816;2024-03-08T06:24:18;101459.40;;;6.42
68939;BMP180;59064;45.294;11.816;2024-03-08T06:26:44;101464.20;;;6.40
68939;BMP180;59064;45.294;11.816;2024-03-08T06:29:09;101466.60;;;6.40
68939;BMP180;59064;45.294;11.816;2024-03-08T06:31:35;101466.40;;;6.40
68939;BMP180;59064;45.294;11.816;2024-03-08T06:34:04;101469.80;;;6.40
68939;BMP180;59064;45.294;11.816;2024-03-08T06:36:33;101475.60;;;6.40
68939;BMP180;59064;45.294;11.816;2024-03-08T06:38:58;101475.60;;;6.40
68939;BMP180;59064;45.294;11.816;2024-03-08T06:41:24;101477.40;;;6.40
68939;BMP180;59064;45.294;11.816;2024-03-08T06:43:49;101481.80;;;6.40
68939;BMP180;59064;45.294;11.816;2024-03-08T06:46:19;101483.60;;;6.40
68939;BMP180;59064;45.294;11.816;2024-03-08T06:48:45;101490.60;;;6.40
68939;BMP180;59064;45.294;11.816;2024-03-08T06:51:11;101488.40;;;6.40
68939;BMP180;59064;45.294;11.816;2024-03-08T06:53:37;101493.20;;;6.40
68939;BMP180;59064;45.294;11.816;2024-03-08T06:56:04;101493.80;;;6.40
68939;BMP180;59064;45.294;11.816;2024-03-08T06:58:29;101489.20;;;6.40
68939;BMP180;59064;45.294;11.816;2024-03-08T07:00:54;101490.00;;;6.38
68939;BMP180;59064;45.294;11.816;2024-03-08T07:03:23;101493.40;;;6.40
68939;BMP180;59064;45.294;11.816;2024-03-08T07:05:49;101490.40;;;6.40
68939;BMP180;59064;45.294;11.816;2024-03-08T07:08:15;101488.00;;;6.40
68939;BMP180;59064;45.294;11.816;2024-03-08T07:10:42;101491.40;;;6.40
68939;BMP180;59064;45.294;11.816;2024-03-08T07:13:08;101489.00;;;6.38
68939;BMP180;59064;45.294;11.816;2024-03-08T07:15:33;101491.20;;;6.34
68939;BMP180;59064;45.294;11.816;2024-03-08T07:18:00;101487.40;;;6.30
68939;BMP180;59064;45.294;11.816;2024-03-08T07:20:26;101494.20;;;6.30
68939;BMP180;59064;45.294;11.816;2024-03-08T07:22:54;101489.40;;;6.30
68939;BMP180;59064;45.294;11.816;2024-03-08T07:25:19;101495.20;;;6.30
68939;BMP180;59064;45.294;11.816;2024-03-08T07:27:50;101492.40;;;6.30
68939;BMP180;59064;45.294;11.816;2024-03-08T07:30:17;101498.80;;;6.30
68939;BMP180;59064;45.294;11.816;2024-03-08T07:33:02;101497.80;;;6.30
68939;BMP180;59064;45.294;11.816;2024-03-08T07:35:29;101498.60;;;6.30
68939;BMP180;59064;45.294;11.816;2024-03-08T07:37:56;101501.20;;;6.30
68939;BMP180;59064;45.294;11.816;2024-03-08T07:40:22;101507.00;;;6.30
68939;BMP180;59064;45.294;11.816;2024-03-08T07:42:49;101495.40;;;6.30
68939;BMP180;59064;45.294;11.816;2024-03-08T07:45:15;101498.00;;;6.30
68939;BMP180;59064;45.294;11.816;2024-03-08T07:47:41;101495.20;;;6.30
68939;BMP180;59064;45.294;11.816;2024-03-08T07:50:07;101498.00;;;6.30
68939;BMP180;59064;45.294;11.816;2024-03-08T07:52:36;101494.00;;;6.34
68939;BMP180;59064;45.294;11.816;2024-03-08T07:55:02;101498.20;;;6.40
68939;BMP180;59064;45.294;11.816;2024-03-08T07:57:29;101495.20;;;6.40
68939;BMP180;59064;45.294;11.816;2024-03-08T07:59:55;101498.60;;;6.38
68939;BMP180;59064;45.294;11.816;2024-03-08T08:02:20;101501.00;;;6.40
68939;BMP180;59064;45.294;11.816;2024-03-08T08:04:46;101505.20;;;6.40
68939;BMP180;59064;45.294;11.816;2024-03-08T08:07:11;101507.40;;;6.40
68939;BMP180;59064;45.294;11.816;2024-03-08T08:09:37;101500.80;;;6.34
68939;BMP180;59064;45.294;11.816;2024-03-08T08:12:03;101502.60;;;6.30
68939;BMP180;59064;45.294;11.816;2024-03-08T08:14:29;101508.00;;;6.30
68939;BMP180;59064;45.294;11.816;2024-03-08T08:16:56;101511.00;;;6.30
68939;BMP180;59064;45.294;11.816;2024-03-08T08:19:22;101514.40;;;6.30
68939;BMP180;59064;45.294;11.816;2024-03-08T08:21:48;101520.00;;;6.36
68939;BMP180;59064;45.294;11.816;2024-03-08T08:24:14;101520.00;;;6.40
68939;BMP180;59064;45.294;11.816;2024-03-08T08:26:40;101524.60;;;6.40
68939;BMP180;59064;45.294;11.816;2024-03-08T08:29:06;101522.80;;;6.40
68939;BMP180;59064;45.294;11.816;2024-03-08T08:31:32;101528.60;;;6.40
68939;BMP180;59064;45.294;11.816;2024-03-08T08:33:58;101527.60;;;6.40
68939;BMP180;59064;45.294;11.816;2024-03-08T08:36:27;101528.20;;;6.40
68939;BMP180;59064;45.294;11.816;2024-03-08T08:38:55;101529.20;;;6.40
68939;BMP180;59064;45.294;11.816;2024-03-08T08:41:21;101530.80;;;6.48
68939;BMP180;59064;45.294;11.816;2024-03-08T08:43:49;101526.60;;;6.50
68939;BMP180;59064;45.294;11.816;2024-03-08T08:46:18;101519.60;;;6.50
68939;BMP180;59064;45.294;11.816;2024-03-08T08:48:44;101525.60;;;6.50
68939;BMP180;59064;45.294;11.816;2024-03-08T08:51:16;101524.20;;;6.50
68939;BMP180;59064;45.294;11.816;2024-03-08T08:53:43;101522.60;;;6.50
68939;BMP180;59064;45.294;11.816;2024-03-08T08:56:10;101523.80;;;6.50
68939;BMP180;59064;45.294;11.816;2024-03-08T08:58:47;101520.20;;;6.50
68939;BMP180;59064;45.294;11.816;2024-03-08T09:01:14;101523.40;;;6.50
68939;BMP180;59064;45.294;11.816;2024-03-08T09:03:40;101525.00;;;6.50
68939;BMP180;59064;45.294;11.816;2024-03-08T09:06:12;101524.80;;;6.50
68939;BMP180;59064;45.294;11.816;2024-03-08T09:08:40;101522.20;;;6.60
68939;BMP180;59064;45.294;11.816;2024-03-08T09:11:06;101517.60;;;6.60
68939;BMP180;59064;45.294;11.816;2024-03-08T09:13:32;101516.80;;;6.70
68939;BMP180;59064;45.294;11.816;2024-03-08T09:16:01;101510.40;;;6.70
68939;BMP180;59064;45.294;11.816;2024-03-08T09:18:30;101507.40;;;6.70
68939;BMP180;59064;45.294;11.816;2024-03-08T09:20:57;101509.40;;;6.80
68939;BMP180;59064;45.294;11.816;2024-03-08T09:23:23;101503.40;;;6.80
68939;BMP180;59064;45.294;11.816;2024-03-08T09:25:49;101511.20;;;6.80
68939;BMP180;59064;45.294;11.816;2024-03-08T09:28:14;101505.60;;;6.80
68939;BMP180;59064;45.294;11.816;2024-03-08T09:30:47;101509.60;;;6.80
68939;BMP180;59064;45.294;11.816;2024-03-08T09:33:15;101515.60;;;6.90
68939;BMP180;59064;45.294;11.816;2024-03-08T09:35:45;101515.20;;;7.00
68939;BMP180;59064;45.294;11.816;2024-03-08T09:38:12;101508.40;;;7.10
68939;BMP180;59064;45.294;11.816;2024-03-08T09:40:41;101508.00;;;7.20
68939;BMP180;59064;45.294;11.816;2024-03-08T09:43:07;101512.80;;;7.30
68939;BMP180;59064;45.294;11.816;2024-03-08T09:45:36;101510.80;;;7.40
68939;BMP180;59064;45.294;11.816;2024-03-08T09:48:02;101506.20;;;7.50
68939;BMP180;59064;45.294;11.816;2024-03-08T09:50:27;101512.60;;;7.60
68939;BMP180;59064;45.294;11.816;2024-03-08T09:52:55;101495.80;;;7.78
68939;BMP180;59064;45.294;11.816;2024-03-08T09:55:27;101508.20;;;7.80
68939;BMP180;59064;45.294;11.816;2024-03-08T09:57:57;101504.00;;;7.80
68939;BMP180;59064;45.294;11.816;2024-03-08T10:00:53;101503.40;;;7.80
68939;BMP180;59064;45.294;11.816;2024-03-08T10:03:20;101509.00;;;7.80
68939;BMP180;59064;45.294;11.816;2024-03-08T10:05:45;101511.20;;;7.90
68939;BMP180;59064;45.294;11.816;2024-03-08T10:08:11;101501.20;;;8.00
68939;BMP180;59064;45.294;11.816;2024-03-08T10:10:38;101501.60;;;8.00
68939;BMP180;59064;45.294;11.816;2024-03-08T10:13:28;101508.20;;;8.00
68939;BMP180;59064;45.294;11.816;2024-03-08T10:15:56;101504.80;;;8.10
68939;BMP180;59064;45.294;11.816;2024-03-08T10:18:22;101506.80;;;8.18
68939;BMP180;59064;45.294;11.816;2024-03-08T10:21:09;101497.00;;;8.28
68939;BMP180;59064;45.294;11.816;2024-03-08T10:23:39;101501.00;;;8.34
68939;BMP180;59064;45.294;11.816;2024-03-08T10:26:15;101504.60;;;8.30
68939;BMP180;59064;45.294;11.816;2024-03-08T10:28:45;101511.00;;;8.36
68939;BMP180;59064;45.294;11.816;2024-03-08T10:31:13;101507.20;;;8.40
68939;BMP180;59064;45.294;11.816;2024-03-08T10:33:43;101513.60;;;8.46
68939;BMP180;59064;45.294;11.816;2024-03-08T10:36:11;101520.80;;;8.40
68939;BMP180;59064;45.294;11.816;2024-03-08T10:38:38;101513.20;;;8.40
68939;BMP180;59064;45.294;11.816;2024-03-08T10:41:06;101515.40;;;8.40
68939;BMP180;59064;45.294;11.816;2024-03-08T10:46:29;101516.20;;;8.46
68939;BMP180;59064;45.294;11.816;2024-03-08T10:48:57;101513.00;;;8.50
68939;BMP180;59064;45.294;11.816;2024-03-08T10:51:28;101519.20;;;8.50
68939;BMP180;59064;45.294;11.816;2024-03-08T10:53:57;101511.00;;;8.50
68939;BMP180;59064;45.294;11.816;2024-03-08T10:56:23;101519.00;;;8.50
68939;BMP180;59064;45.294;11.816;2024-03-08T10:58:53;101513.20;;;8.50
68939;BMP180;59064;45.294;11.816;2024-03-08T11:01:19;101503.60;;;8.60
68939;BMP180;59064;45.294;11.816;2024-03-08T11:03:46;101509.20;;;8.60
68939;BMP180;59064;45.294;11.816;2024-03-08T11:14:54;101510.20;;;8.60
68939;BMP180;59064;45.294;11.816;2024-03-08T11:17:26;101511.20;;;8.54
68939;BMP180;59064;45.294;11.816;2024-03-08T11:20:15;101512.80;;;8.52
68939;BMP180;59064;45.294;11.816;2024-03-08T11:22:55;101502.80;;;8.52
68939;BMP180;59064;45.294;11.816;2024-03-08T11:25:34;101517.80;;;8.50
68939;BMP180;59064;45.294;11.816;2024-03-08T11:28:13;101513.40;;;8.60
68939;BMP180;59064;45.294;11.816;2024-03-08T11:33:30;101511.00;;;8.48
68939;BMP180;59064;45.294;11.816;2024-03-08T11:36:10;101507.00;;;8.40
68939;BMP180;59064;45.294;11.816;2024-03-08T11:38:45;101496.80;;;8.32
68939;BMP180;59064;45.294;11.816;2024-03-08T11:41:17;101492.40;;;8.40
68939;BMP180;59064;45.294;11.816;2024-03-08T11:43:46;101488.80;;;8.40
68939;BMP180;59064;45.294;11.816;2024-03-08T11:46:13;101489.60;;;8.38
68939;BMP180;59064;45.294;11.816;2024-03-08T11:48:43;101499.80;;;8.30
68939;BMP180;59064;45.294;11.816;2024-03-08T11:51:13;101492.20;;;8.30
68939;BMP180;59064;45.294;11.816;2024-03-08T11:53:40;101497.20;;;8.20
68939;BMP180;59064;45.294;11.816;2024-03-08T11:56:13;101495.80;;;8.20
68939;BMP180;59064;45.294;11.816;2024-03-08T11:58:39;101497.60;;;8.10
68939;BMP180;59064;45.294;11.816;2024-03-08T12:01:06;101485.60;;;8.18
68939;BMP180;59064;45.294;11.816;2024-03-08T12:03:33;101481.40;;;8.20
68939;BMP180;59064;45.294;11.816;2024-03-08T12:06:02;101484.20;;;8.20
68939;BMP180;59064;45.294;11.816;2024-03-08T12:08:30;101485.20;;;8.26
68939;BMP180;59064;45.294;11.816;2024-03-08T12:10:56;101482.00;;;8.30
68939;BMP180;59064;45.294;11.816;2024-03-08T12:13:34;101487.00;;;8.30
68939;BMP180;59064;45.294;11.816;2024-03-08T12:16:02;101477.00;;;8.20
68939;BMP180;59064;45.294;11.816;2024-03-08T12:18:33;101482.60;;;8.20
68939;BMP180;59064;45.294;11.816;2024-03-08T12:21:09;101478.40;;;8.10
68939;BMP180;59064;45.294;11.816;2024-03-08T12:23:46;101472.80;;;8.00
68939;BMP180;59064;45.294;11.816;2024-03-08T12:26:24;101471.20;;;8.00
68939;BMP180;59064;45.294;11.816;2024-03-08T12:28:50;101470.20;;;8.00
68939;BMP180;59064;45.294;11.816;2024-03-08T12:31:18;101463.60;;;7.92
68939;BMP180;59064;45.294;11.816;2024-03-08T12:33:51;101460.00;;;7.90
68939;BMP180;59064;45.294;11.816;2024-03-08T12:36:18;101462.60;;;7.90
68939;BMP180;59064;45.294;11.816;2024-03-08T12:38:44;101458.20;;;7.80
68939;BMP180;59064;45.294;11.816;2024-03-08T12:41:16;101456.00;;;7.84
68939;BMP180;59064;45.294;11.816;2024-03-08T12:43:44;101455.80;;;7.90
68939;BMP180;59064;45.294;11.816;2024-03-08T12:46:21;101446.60;;;7.90
68939;BMP180;59064;45.294;11.816;2024-03-08T12:48:48;101441.60;;;7.90
68939;BMP180;59064;45.294;11.816;2024-03-08T12:51:17;101435.20;;;7.90
68939;BMP180;59064;45.294;11.816;2024-03-08T12:53:45;101439.00;;;7.90
68939;BMP180;59064;45.294;11.816;2024-03-08T12:56:11;101436.60;;;7.88
68939;BMP180;59064;45.294;11.816;2024-03-08T12:58:37;101437.40;;;7.90
68939;BMP180;59064;45.294;11.816;2024-03-08T13:01:04;101439.40;;;7.90
68939;BMP180;59064;45.294;11.816;2024-03-08T13:03:33;101437.00;;;7.90
68939;BMP180;59064;45.294;11.816;2024-03-08T13:06:02;101438.40;;;7.92
68939;BMP180;59064;45.294;11.816;2024-03-08T13:08:28;101432.20;;;7.90
68939;BMP180;59064;45.294;11.816;2024-03-08T13:10:54;101435.60;;;7.90
68939;BMP180;59064;45.294;11.816;2024-03-08T13:13:20;101436.80;;;7.90
68939;BMP180;59064;45.294;11.816;2024-03-08T13:15:45;101436.80;;;7.80
68939;BMP180;59064;45.294;11.816;2024-03-08T13:18:11;101429.80;;;7.80
68939;BMP180;59064;45.294;11.816;2024-03-08T13:20:37;101427.60;;;7.70
68939;BMP180;59064;45.294;11.816;2024-03-08T13:23:04;101427.40;;;7.70
68939;BMP180;59064;45.294;11.816;2024-03-08T13:25:31;101426.20;;;7.60
68939;BMP180;59064;45.294;11.816;2024-03-08T13:27:57;101420.60;;;7.58
68939;BMP180;59064;45.294;11.816;2024-03-08T13:30:24;101422.00;;;7.50
68939;BMP180;59064;45.294;11.816;2024-03-08T13:32:54;101416.20;;;7.50
68939;BMP180;59064;45.294;11.816;2024-03-08T13:35:20;101416.60;;;7.48
68939;BMP180;59064;45.294;11.816;2024-03-08T13:37:55;101411.40;;;7.40
68939;BMP180;59064;45.294;11.816;2024-03-08T13:40:20;101417.00;;;7.40
68939;BMP180;59064;45.294;11.816;2024-03-08T13:42:46;101416.40;;;7.30
68939;BMP180;59064;45.294;11.816;2024-03-08T13:45:12;101419.80;;;7.30
68939;BMP180;59064;45.294;11.816;2024-03-08T13:47:39;101422.40;;;7.20
68939;BMP180;59064;45.294;11.816;2024-03-08T13:50:06;101418.60;;;7.30
68939;BMP180;59064;45.294;11.816;2024-03-08T13:52:33;101413.00;;;7.30
68939;BMP180;59064;45.294;11.816;2024-03-08T13:55:00;101410.60;;;7.30
68939;BMP180;59064;45.294;11.816;2024-03-08T13:57:26;101403.40;;;7.30
68939;BMP180;59064;45.294;11.816;2024-03-08T13:59:52;101404.60;;;7.30
68939;BMP180;59064;45.294;11.816;2024-03-08T14:02:18;101406.20;;;7.40
68939;BMP180;59064;45.294;11.816;2024-03-08T14:04:44;101404.00;;;7.40
68939;BMP180;59064;45.294;11.816;2024-03-08T14:07:09;101392.40;;;7.50
68939;BMP180;59064;45.294;11.816;2024-03-08T14:09:36;101391.40;;;7.52
68939;BMP180;59064;45.294;11.816;2024-03-08T14:12:03;101394.60;;;7.60
68939;BMP180;59064;45.294;11.816;2024-03-08T14:14:33;101388.20;;;7.68